Time;durP1;ratioP1;P1;durP2;ratioP2;P2;SDS_P1;SDS_P2;PMS_P1;PMS_P2;Temp;Humidity;BMP_temperature;BMP_pressure;BME280_temperature;BME280_humidity;BME280_pressure;Samples;Min_cycle;Max_cycle;Signal;HPM_P1;HPM_P2
2022/02/17 00:01:19;;;;;;;0.50;0.40;;;11.90;99.90;;;;;;5084738;28;20063;-53
2022/02/17 00:04:44;;;;;;;0.38;0.38;;;12.00;99.90;;;;;;5083285;28;20666;-54
2022/02/17 00:08:10;;;;;;;0.40;0.40;;;12.10;99.90;;;;;;5076626;28;20112;-53
2022/02/17 00:11:39;;;;;;;0.55;0.40;;;12.20;99.90;;;;;;5076902;28;20028;-50
2022/02/17 00:15:00;;;;;;;0.52;0.40;;;12.40;99.90;;;;;;5066507;28;20823;-54
2022/02/17 00:18:29;;;;;;;0.75;0.30;;;12.60;99.90;;;;;;5076524;28;20051;-51
2022/02/17 00:21:54;;;;;;;0.35;0.30;;;12.60;99.90;;;;;;5078110;28;20071;-54
2022/02/17 00:25:20;;;;;;;0.50;0.50;;;12.70;99.90;;;;;;5075597;28;20059;-50
2022/02/17 00:28:45;;;;;;;0.20;0.20;;;12.70;99.90;;;;;;5081312;28;20411;-52
2022/02/17 00:32:10;;;;;;;0.38;0.38;;;12.60;99.90;;;;;;5047485;28;20076;-52
2022/02/17 00:35:35;;;;;;;0.20;0.20;;;12.50;99.90;;;;;;5064793;28;20036;-51
2022/02/17 00:39:01;;;;;;;0.60;0.40;;;12.50;99.90;;;;;;5067817;28;20031;-52
2022/02/17 00:42:26;;;;;;;0.85;0.40;;;12.50;99.90;;;;;;5053712;28;20204;-49
2022/02/17 00:45:52;;;;;;;0.50;0.30;;;12.50;99.90;;;;;;5065541;28;20046;-53
2022/02/17 00:49:17;;;;;;;0.20;0.20;;;12.40;99.90;;;;;;5057748;28;20036;-49
2022/02/17 00:52:42;;;;;;;0.50;0.50;;;12.30;99.90;;;;;;5056982;28;20055;-52
2022/02/17 00:56:08;;;;;;;0.10;0.10;;;12.30;99.90;;;;;;5076319;28;20032;-53
2022/02/17 00:59:33;;;;;;;0.20;0.20;;;12.40;99.90;;;;;;5081338;28;20140;-51
2022/02/17 01:02:58;;;;;;;0.47;0.20;;;12.40;99.90;;;;;;5081536;28;20484;-51
2022/02/17 01:06:24;;;;;;;0.40;0.22;;;12.40;99.90;;;;;;5083365;28;20047;-55
2022/02/17 01:09:49;;;;;;;0.15;0.15;;;12.40;99.90;;;;;;5068947;28;20464;-51
2022/02/17 01:13:14;;;;;;;0.65;0.30;;;12.30;99.90;;;;;;5071517;28;20039;-52
2022/02/17 01:16:40;;;;;;;0.45;0.45;;;12.10;99.90;;;;;;5081008;28;20046;-53
2022/02/17 01:20:05;;;;;;;2.55;1.42;;;12.00;99.90;;;;;;5060756;28;20052;-52
2022/02/17 01:23:31;;;;;;;4.97;0.82;;;11.50;99.90;;;;;;5070526;28;20075;-52
2022/02/17 01:26:56;;;;;;;4.60;1.05;;;10.10;99.90;;;;;;5048582;28;20428;-51
2022/02/17 01:30:21;;;;;;;3.88;1.10;;;9.20;99.90;;;;;;5081033;28;20511;-50
2022/02/17 01:33:47;;;;;;;3.05;1.17;;;8.80;99.90;;;;;;5072089;28;20108;-51
2022/02/17 01:37:12;;;;;;;2.42;0.60;;;8.50;99.90;;;;;;5048760;28;20489;-52
2022/02/17 01:40:39;;;;;;;3.65;1.00;;;8.30;99.90;;;;;;5065424;28;20041;-51
2022/02/17 01:44:03;;;;;;;2.58;0.90;;;8.20;99.90;;;;;;5065781;28;20081;-55
2022/02/17 01:47:28;;;;;;;3.50;0.90;;;8.20;99.90;;;;;;5048775;28;20040;-52
2022/02/17 01:50:53;;;;;;;2.97;0.90;;;8.10;99.90;;;;;;5077891;28;20124;-48
2022/02/17 01:54:19;;;;;;;4.38;0.73;;;8.00;99.90;;;;;;5074844;28;20520;-49
2022/02/17 01:57:44;;;;;;;2.65;0.90;;;8.00;99.90;;;;;;5083704;28;20089;-51
2022/02/17 02:01:10;;;;;;;3.60;0.60;;;7.90;99.90;;;;;;5084196;28;20040;-50
2022/02/17 02:04:35;;;;;;;3.15;0.70;;;7.80;99.90;;;;;;5066348;28;20449;-48
2022/02/17 02:08:00;;;;;;;2.15;0.60;;;7.80;99.90;;;;;;5075981;28;20135;-54
2022/02/17 02:11:26;;;;;;;4.50;0.88;;;7.70;99.90;;;;;;5077155;28;20040;-48
2022/02/17 02:14:54;;;;;;;2.92;0.50;;;7.80;99.90;;;;;;5062695;28;20432;-52
2022/02/17 02:17:59;;;;;;;;;;;7.80;99.90;;;;;;5075874;28;20036;-49
2022/02/17 02:21:25;;;;;;;11.25;1.35;;;7.90;99.90;;;;;;5077067;28;19915;-52
2022/02/17 02:24:51;;;;;;;1.92;0.88;;;7.80;99.90;;;;;;5077362;28;20733;-49
2022/02/17 02:28:15;;;;;;;3.47;0.88;;;7.90;99.90;;;;;;5082490;28;20043;-53
2022/02/17 02:31:41;;;;;;;3.72;1.00;;;7.90;99.90;;;;;;5070882;28;20048;-49
2022/02/17 02:35:06;;;;;;;4.57;0.85;;;7.90;99.90;;;;;;5084758;28;20032;-53
2022/02/17 02:38:31;;;;;;;4.85;1.00;;;7.90;99.90;;;;;;5048265;28;20032;-51
2022/02/17 02:41:57;;;;;;;4.15;0.80;;;7.80;99.90;;;;;;5061680;28;20543;-48
2022/02/17 02:45:22;;;;;;;5.93;1.40;;;7.70;99.90;;;;;;5082218;28;20063;-50
2022/02/17 02:48:47;;;;;;;5.35;0.93;;;7.60;99.90;;;;;;5083607;28;20040;-50
2022/02/17 02:52:13;;;;;;;7.07;1.17;;;7.50;99.90;;;;;;5067085;28;20038;-51
2022/02/17 02:55:38;;;;;;;3.88;1.35;;;7.30;99.90;;;;;;5076135;28;20071;-52
2022/02/17 02:59:03;;;;;;;5.43;1.60;;;7.30;99.90;;;;;;5090132;28;20036;-54
2022/02/17 03:02:29;;;;;;;4.20;1.52;;;7.20;99.90;;;;;;5067845;28;20051;-53
2022/02/17 03:05:54;;;;;;;7.82;1.30;;;7.10;99.90;;;;;;5078661;28;20534;-49
2022/02/17 03:09:19;;;;;;;7.00;1.52;;;7.00;99.90;;;;;;5051514;28;20048;-48
2022/02/17 03:12:45;;;;;;;9.80;1.90;;;7.10;99.90;;;;;;5085943;28;20081;-49
2022/02/17 03:16:10;;;;;;;11.02;2.38;;;7.20;99.90;;;;;;5071251;28;20032;-50
2022/02/17 03:19:36;;;;;;;14.07;1.58;;;7.30;99.90;;;;;;5080484;28;20028;-50
2022/02/17 03:23:01;;;;;;;5.88;1.10;;;7.40;99.90;;;;;;5084089;28;20035;-51
2022/02/17 03:26:26;;;;;;;10.48;1.88;;;7.50;99.90;;;;;;5058841;28;20127;-50
2022/02/17 03:29:52;;;;;;;6.15;1.38;;;7.70;99.90;;;;;;5088187;28;20043;-52
2022/02/17 03:33:17;;;;;;;8.30;1.98;;;7.80;99.90;;;;;;5085647;28;20036;-51
2022/02/17 03:36:42;;;;;;;8.15;1.90;;;7.90;99.90;;;;;;5066621;28;20043;-52
2022/02/17 03:40:08;;;;;;;6.10;1.42;;;8.00;99.90;;;;;;5080173;28;20054;-53
2022/02/17 03:43:33;;;;;;;8.20;1.33;;;8.10;99.90;;;;;;5080107;28;20032;-48
2022/02/17 03:46:58;;;;;;;4.88;1.38;;;8.00;99.90;;;;;;5063949;28;20052;-50
2022/02/17 03:50:24;;;;;;;3.97;1.17;;;8.00;99.90;;;;;;5082307;28;20055;-48
2022/02/17 03:53:49;;;;;;;8.50;1.40;;;7.90;99.90;;;;;;5088000;28;20070;-48
2022/02/17 03:57:15;;;;;;;8.48;1.80;;;7.90;99.90;;;;;;5081069;28;20036;-50
2022/02/17 04:00:40;;;;;;;7.20;1.55;;;7.90;99.90;;;;;;5074641;28;20028;-51
2022/02/17 04:04:05;;;;;;;7.90;1.50;;;7.90;99.90;;;;;;5049679;28;20667;-51
2022/02/17 04:07:31;;;;;;;5.78;1.52;;;7.80;99.90;;;;;;5067110;28;20059;-49
2022/02/17 04:10:56;;;;;;;12.07;1.38;;;7.70;99.90;;;;;;5072245;28;20129;-52
2022/02/17 04:14:21;;;;;;;6.43;1.45;;;7.60;99.90;;;;;;5050446;28;20029;-48
2022/02/17 04:17:47;;;;;;;4.35;1.08;;;7.60;99.90;;;;;;5070523;28;20064;-52
2022/02/17 04:21:12;;;;;;;6.88;1.60;;;7.70;99.90;;;;;;5082472;28;20030;-53
2022/02/17 04:24:39;;;;;;;6.20;1.65;;;7.70;99.90;;;;;;5049993;28;20045;-51
2022/02/17 04:27:23;;;;;;;11.25;1.95;;;7.90;99.90;;;;;;5064225;28;20380;-54
2022/02/17 04:30:28;;;;;;;7.03;1.35;;;8.10;99.90;;;;;;5089535;28;20031;-56
2022/02/17 04:33:54;;;;;;;6.47;1.98;;;8.30;99.90;;;;;;5084419;28;20039;-53
2022/02/17 04:37:19;;;;;;;4.38;1.33;;;8.50;99.90;;;;;;5072093;28;20086;-50
2022/02/17 04:44:16;;;;;;;5.75;1.40;;;8.60;99.90;;;;;;5066881;28;20028;-54
2022/02/17 04:47:41;;;;;;;3.38;1.00;;;8.20;99.90;;;;;;5063544;28;20515;-50
2022/02/17 04:51:07;;;;;;;2.05;0.82;;;7.80;99.90;;;;;;5076467;28;20059;-54
2022/02/17 04:54:32;;;;;;;2.00;1.15;;;7.50;99.90;;;;;;5083918;28;20054;-55
2022/02/17 04:57:58;;;;;;;2.85;0.70;;;7.20;99.90;;;;;;5063283;28;20120;-53
2022/02/17 05:01:23;;;;;;;3.28;0.70;;;7.00;99.90;;;;;;5076470;28;20484;-52
2022/02/17 05:04:48;;;;;;;4.40;0.70;;;6.80;99.90;;;;;;5049408;28;20041;-52
2022/02/17 05:08:14;;;;;;;3.42;0.52;;;6.80;99.90;;;;;;5063431;28;20055;-52
2022/02/17 05:11:39;;;;;;;1.02;0.75;;;6.80;99.90;;;;;;5089436;28;20100;-52
2022/02/17 05:15:04;;;;;;;2.67;0.88;;;6.80;99.90;;;;;;5063182;28;20032;-51
2022/02/17 05:18:30;;;;;;;4.60;0.82;;;6.80;99.90;;;;;;5073623;28;20897;-52
2022/02/17 05:21:55;;;;;;;3.63;0.90;;;6.80;99.90;;;;;;5083587;28;20036;-55
2022/02/17 05:25:20;;;;;;;2.63;1.17;;;6.70;99.90;;;;;;5065146;28;20060;-52
2022/02/17 05:28:46;;;;;;;4.85;1.17;;;6.60;99.90;;;;;;5078611;28;20078;-51
2022/02/17 05:32:11;;;;;;;10.85;1.38;;;6.50;99.90;;;;;;5049048;28;20037;-51
2022/02/17 05:35:36;;;;;;;5.70;1.20;;;6.50;99.90;;;;;;5068888;28;20029;-52
2022/02/17 05:39:02;;;;;;;3.70;0.98;;;6.50;99.90;;;;;;5069085;28;20094;-54
2022/02/17 05:42:27;;;;;;;11.23;1.48;;;6.60;99.90;;;;;;5081619;28;20036;-53
2022/02/17 05:45:52;;;;;;;8.50;1.30;;;6.60;99.90;;;;;;5048889;28;20592;-53
2022/02/17 05:49:18;;;;;;;6.28;1.30;;;6.70;99.90;;;;;;5066670;28;20032;-51
2022/02/17 05:52:43;;;;;;;3.67;1.60;;;6.60;99.90;;;;;;5077947;28;20052;-55
2022/02/17 05:56:09;;;;;;;3.35;0.90;;;6.60;99.90;;;;;;5082876;28;20043;-53
2022/02/17 05:59:34;;;;;;;9.15;1.77;;;6.40;99.90;;;;;;5079020;28;20063;-57
2022/02/17 06:02:59;;;;;;;8.32;1.65;;;6.30;99.90;;;;;;5075710;28;20399;-56
2022/02/17 06:06:25;;;;;;;6.85;1.20;;;6.20;99.90;;;;;;5048328;28;20120;-54
2022/02/17 06:09:50;;;;;;;7.78;1.63;;;6.20;99.90;;;;;;5080915;28;20036;-54
2022/02/17 06:13:22;;;;;;;6.95;1.42;;;6.10;99.90;;;;;;5069587;28;20036;-55
2022/02/17 06:16:47;;;;;;;11.40;2.17;;;6.20;99.90;;;;;;5077601;28;20486;-55
2022/02/17 06:20:12;;;;;;;5.50;1.42;;;6.20;99.90;;;;;;5077856;28;20048;-52
2022/02/17 06:23:38;;;;;;;11.85;1.48;;;6.20;99.90;;;;;;5071581;28;20054;-54
2022/02/17 06:27:03;;;;;;;5.35;1.65;;;6.20;99.90;;;;;;5078429;28;20044;-55
2022/02/17 06:30:28;;;;;;;10.55;2.15;;;6.40;99.90;;;;;;5081000;28;20035;-54
2022/02/17 06:33:54;;;;;;;13.18;1.90;;;6.50;99.90;;;;;;5067614;28;20036;-53
2022/02/17 06:37:19;;;;;;;10.88;2.42;;;6.70;99.90;;;;;;5088723;28;20046;-56
2022/02/17 06:40:45;;;;;;;11.23;1.95;;;6.90;99.90;;;;;;5086816;28;20032;-52
2022/02/17 06:44:10;;;;;;;8.40;1.85;;;7.20;99.90;;;;;;5068201;28;20028;-55
2022/02/17 06:47:35;;;;;;;9.05;2.15;;;7.30;99.90;;;;;;5078386;28;20454;-56
2022/02/17 06:51:01;;;;;;;9.98;1.60;;;7.50;99.90;;;;;;5090459;28;20044;-53
2022/02/17 06:54:26;;;;;;;10.02;1.88;;;7.60;99.90;;;;;;5072579;28;20043;-55
2022/02/17 06:57:52;;;;;;;9.73;2.40;;;7.90;99.90;;;;;;5079301;28;20032;-53
2022/02/17 07:01:17;;;;;;;8.93;1.83;;;8.30;98.60;;;;;;5052073;28;20043;-56
2022/02/17 07:04:42;;;;;;;6.57;2.08;;;9.60;90.90;;;;;;5068344;28;20043;-53
2022/02/17 07:08:08;;;;;;;6.35;1.90;;;10.20;88.60;;;;;;5077989;28;20094;-54
2022/02/17 07:11:33;;;;;;;9.75;1.77;;;10.50;73.30;;;;;;5078270;28;20020;-55
2022/02/17 07:14:58;;;;;;;8.90;2.35;;;10.90;64.10;;;;;;5089839;28;20036;-55
2022/02/17 07:18:24;;;;;;;13.27;2.35;;;11.40;64.30;;;;;;5071009;28;20437;-54
2022/02/17 07:21:50;;;;;;;9.65;1.85;;;11.70;60.70;;;;;;5060491;28;20090;-56
2022/02/17 07:25:14;;;;;;;7.20;1.52;;;11.50;54.90;;;;;;5074070;28;20958;-57
2022/02/17 07:28:41;;;;;;;6.32;1.77;;;11.80;51.80;;;;;;5089625;28;20042;-57
2022/02/17 07:32:05;;;;;;;10.25;1.90;;;11.30;52.90;;;;;;5065166;28;20042;-57
2022/02/17 07:35:31;;;;;;;15.90;2.30;;;11.70;54.30;;;;;;5078906;28;20033;-59
2022/02/17 07:38:56;;;;;;;9.40;2.13;;;12.10;43.50;;;;;;5086144;28;20468;-58
2022/02/17 07:42:21;;;;;;;10.63;3.22;;;12.70;41.90;;;;;;5081175;28;20032;-57
2022/02/17 07:45:49;;;;;;;13.00;2.83;;;13.20;37.00;;;;;;5076353;28;20052;-58
2022/02/17 07:49:12;;;;;;;8.90;1.95;;;13.80;34.30;;;;;;5049236;28;20567;-57
2022/02/17 07:52:38;;;;;;;8.93;2.70;;;12.80;37.30;;;;;;5083009;28;20040;-54
2022/02/17 07:56:03;;;;;;;7.38;2.38;;;12.10;40.70;;;;;;5066126;28;20491;-57
2022/02/17 07:59:28;;;;;;;6.20;2.35;;;13.00;36.30;;;;;;5077435;28;20035;-54
2022/02/17 08:02:54;;;;;;;15.43;2.40;;;13.30;35.50;;;;;;5086080;28;20063;-57
2022/02/17 08:06:19;;;;;;;6.85;1.73;;;12.20;39.30;;;;;;5069610;28;20048;-57
2022/02/17 08:09:44;;;;;;;8.35;2.72;;;11.50;38.30;;;;;;5077661;28;20174;-57
2022/02/17 08:13:10;;;;;;;5.68;1.92;;;10.90;41.00;;;;;;5083316;28;20499;-57
2022/02/17 08:16:36;;;;;;;8.13;1.77;;;10.50;43.70;;;;;;5067462;28;20036;-57
2022/02/17 08:20:00;;;;;;;8.45;1.85;;;10.30;44.00;;;;;;5074877;28;20043;-53
2022/02/17 08:23:32;;;;;;;10.27;1.98;;;10.00;50.90;;;;;;5077248;28;20044;-55
2022/02/17 08:26:34;;;;;;;;;;;9.80;56.40;;;;;;5065894;28;20134;-58
2022/02/17 08:30:00;;;;;;;7.60;1.50;;;9.70;55.70;;;;;;5047178;28;19963;-58
2022/02/17 08:33:25;;;;;;;12.15;2.47;;;9.70;57.20;;;;;;5048049;28;20140;-57
2022/02/17 08:36:53;;;;;;;10.07;2.28;;;9.70;54.80;;;;;;5062419;28;20054;-57
2022/02/17 08:40:16;;;;;;;10.85;1.83;;;9.70;54.10;;;;;;5071612;28;20036;-55
2022/02/17 08:43:41;;;;;;;7.35;1.92;;;9.70;55.50;;;;;;5069291;28;20040;-56
2022/02/17 08:47:06;;;;;;;8.98;2.33;;;9.60;55.80;;;;;;5064118;28;20051;-56
2022/02/17 08:50:32;;;;;;;4.57;1.67;;;9.70;56.00;;;;;;5069090;28;20111;-58
2022/02/17 08:53:57;;;;;;;12.30;2.05;;;9.60;56.40;;;;;;5048084;28;20041;-57
2022/02/17 08:57:23;;;;;;;6.57;1.40;;;9.70;55.10;;;;;;5076808;28;20074;-56
2022/02/17 09:00:48;;;;;;;9.27;1.83;;;9.80;52.30;;;;;;5068226;28;20067;-55
2022/02/17 09:04:14;;;;;;;10.38;2.03;;;9.80;51.80;;;;;;5077914;28;20039;-56
2022/02/17 09:07:39;;;;;;;9.88;1.30;;;9.80;53.10;;;;;;5084388;28;20075;-55
2022/02/17 09:11:04;;;;;;;15.15;1.83;;;10.00;52.20;;;;;;5064865;28;20048;-56
2022/02/17 09:14:30;;;;;;;11.52;2.03;;;10.00;50.50;;;;;;5071906;28;20556;-57
2022/02/17 09:17:55;;;;;;;4.97;1.42;;;10.00;50.10;;;;;;5076324;28;20076;-54
2022/02/17 09:21:20;;;;;;;12.05;2.03;;;10.00;50.80;;;;;;5062544;28;20036;-57
2022/02/17 09:24:46;;;;;;;9.68;2.10;;;10.10;51.60;;;;;;5074744;28;20040;-57
2022/02/17 09:28:11;;;;;;;8.30;1.77;;;10.10;52.00;;;;;;5076316;28;20043;-55
2022/02/17 09:31:36;;;;;;;7.10;2.13;;;10.10;52.70;;;;;;5059016;28;20477;-56
2022/02/17 09:35:17;;;;;;;3.30;1.77;;;10.10;54.30;;;;;;5076047;28;20080;-54
2022/02/17 09:38:42;;;;;;;7.20;1.83;;;10.10;54.50;;;;;;5047120;28;20112;-56
2022/02/17 09:42:08;;;;;;;6.93;1.55;;;10.00;59.60;;;;;;5063370;28;20078;-57
2022/02/17 09:45:36;;;;;;;6.82;1.60;;;9.80;60.10;;;;;;5076314;28;20183;-56
2022/02/17 09:49:01;;;;;;;4.85;1.35;;;9.80;60.80;;;;;;5074925;28;20052;-55
2022/02/17 09:52:27;;;;;;;4.72;1.42;;;9.80;60.00;;;;;;5075621;28;20506;-56
2022/02/17 09:55:52;;;;;;;6.88;1.80;;;9.80;60.40;;;;;;5066092;28;20115;-53
2022/02/17 09:59:17;;;;;;;7.38;1.98;;;9.80;61.20;;;;;;5060041;28;20036;-56
2022/02/17 10:02:43;;;;;;;6.15;1.50;;;9.80;61.60;;;;;;5084140;28;20036;-55
2022/02/17 10:06:21;;;;;;;8.05;1.70;;;9.80;61.90;;;;;;5064495;28;20124;-54
2022/02/17 10:09:46;;;;;;;4.57;1.02;;;9.70;65.90;;;;;;5076346;28;20507;-55
2022/02/17 10:13:29;;;;;;;6.72;1.17;;;9.60;70.70;;;;;;5075866;28;20032;-57
2022/02/17 10:16:54;;;;;;;4.82;1.15;;;9.60;77.40;;;;;;5066565;28;20119;-56
2022/02/17 10:20:19;;;;;;;4.80;1.40;;;9.40;83.10;;;;;;5049615;28;20028;-57
2022/02/17 10:23:49;;;;;;;6.80;1.33;;;9.40;86.60;;;;;;5048168;28;20432;-58
2022/02/17 10:26:40;;;;;;;;;;;9.50;85.60;;;;;;5084803;28;20490;-53
2022/02/17 10:29:08;;;;;;;4.45;1.27;;;9.50;85.90;;;;;;5030664;28;20021;-57
2022/02/17 10:31:36;;;;;;;8.48;1.23;;;9.50;83.40;;;;;;5066600;28;20643;-53
2022/02/17 10:34:03;;;;;;;5.82;1.60;;;9.50;82.00;;;;;;5087929;28;20039;-54
2022/02/17 10:36:40;;;;;;;6.38;1.00;;;9.50;82.70;;;;;;5066864;28;20115;-54
2022/02/17 10:39:12;;;;;;;7.82;1.48;;;9.50;84.50;;;;;;5088214;28;20050;-54
2022/02/17 10:41:44;;;;;;;5.22;1.40;;;9.50;85.20;;;;;;5077166;28;20089;-53
2022/02/17 10:44:10;;;;;;;6.75;1.17;;;9.50;88.10;;;;;;5068314;28;20055;-53
2022/02/17 10:46:38;;;;;;;6.45;1.17;;;9.40;92.40;;;;;;5066088;28;20033;-53
2022/02/17 10:49:11;;;;;;;6.07;1.50;;;9.40;93.90;;;;;;5087805;28;20046;-54
2022/02/17 10:51:37;;;;;;;3.03;1.25;;;9.40;95.40;;;;;;5066381;28;20117;-52
2022/02/17 10:54:02;;;;;;;6.75;1.77;;;9.30;96.50;;;;;;5087608;28;20058;-55
2022/02/17 10:56:32;;;;;;;4.55;1.30;;;9.30;97.40;;;;;;5066634;28;20253;-53
2022/02/17 11:00:00;;;;;;;12.18;2.28;;;9.20;99.00;;;;;;5087496;28;20109;-53
2022/02/17 11:01:51;;;;;;;6.63;1.77;;;9.20;99.90;;;;;;5047698;28;20033;-55
2022/02/17 11:04:17;;;;;;;10.38;1.77;;;9.20;99.90;;;;;;5084945;28;20028;-50
2022/02/17 11:06:44;;;;;;;6.65;1.50;;;9.10;99.90;;;;;;5087884;28;20032;-50
2022/02/17 11:09:11;;;;;;;9.07;1.83;;;9.00;99.90;;;;;;5068399;28;20021;-52
2022/02/17 11:11:37;;;;;;;5.90;1.58;;;9.00;99.90;;;;;;5066807;28;20078;-52
2022/02/17 11:14:02;;;;;;;5.18;1.42;;;9.10;99.90;;;;;;5090733;28;20028;-51
2022/02/17 11:16:28;;;;;;;5.40;1.60;;;9.20;99.90;;;;;;5070446;28;20043;-51
2022/02/17 11:18:55;;;;;;;5.47;1.23;;;9.40;99.90;;;;;;5090638;28;20439;-54
2022/02/17 11:21:20;;;;;;;6.32;1.70;;;9.40;99.90;;;;;;5069865;28;20174;-52
2022/02/17 11:23:46;;;;;;;4.80;1.33;;;9.40;99.90;;;;;;5072436;28;20052;-51
2022/02/17 11:26:20;;;;;;;7.00;1.58;;;9.40;99.90;;;;;;5069965;28;20033;-50
2022/02/17 11:28:45;;;;;;;7.18;1.30;;;9.30;99.90;;;;;;5090950;28;20247;-52
2022/02/17 11:31:12;;;;;;;6.25;1.27;;;9.20;99.90;;;;;;5070043;28;20090;-50
2022/02/17 11:33:52;;;;;;;3.45;1.13;;;9.20;99.90;;;;;;5090665;28;20475;-49
2022/02/17 11:36:25;;;;;;;5.07;1.20;;;9.20;99.90;;;;;;5066439;28;20092;-50
2022/02/17 11:39:05;;;;;;;3.85;1.20;;;9.30;99.90;;;;;;5051123;28;20037;-52
2022/02/17 11:41:34;;;;;;;4.05;1.20;;;9.40;99.90;;;;;;5068203;28;20470;-53
2022/02/17 11:44:21;;;;;;;3.22;0.85;;;9.50;99.90;;;;;;5087752;28;20051;-49
2022/02/17 11:46:53;;;;;;;5.50;0.90;;;9.60;99.90;;;;;;5050823;28;20033;-53
2022/02/17 11:49:31;;;;;;;3.17;1.00;;;9.60;97.90;;;;;;5049947;28;20056;-51
2022/02/17 11:52:13;;;;;;;3.25;1.00;;;9.60;97.60;;;;;;5090983;28;20016;-52
2022/02/17 11:54:39;;;;;;;8.00;1.10;;;9.70;93.50;;;;;;5072349;28;20106;-50
2022/02/17 11:57:05;;;;;;;4.38;1.55;;;9.90;92.00;;;;;;5090806;28;20682;-52
2022/02/17 11:59:35;;;;;;;2.78;1.02;;;9.90;90.20;;;;;;5071387;28;20025;-54
2022/02/17 12:02:03;;;;;;;3.95;0.85;;;9.80;89.40;;;;;;5090741;28;20016;-54
2022/02/17 12:04:33;;;;;;;4.00;1.30;;;9.70;91.60;;;;;;5070367;28;20439;-55
2022/02/17 12:07:27;;;;;;;3.25;0.85;;;9.60;93.90;;;;;;5088402;28;20036;-53
2022/02/17 12:09:53;;;;;;;6.10;1.20;;;9.50;96.60;;;;;;5050576;28;20060;-48
2022/02/17 12:12:22;;;;;;;4.38;1.45;;;9.30;98.70;;;;;;5087720;28;20103;-53
2022/02/17 12:14:49;;;;;;;5.57;1.85;;;9.20;99.90;;;;;;5070725;28;20043;-51
2022/02/17 12:17:16;;;;;;;5.50;1.23;;;9.20;99.90;;;;;;5088095;28;20115;-51
2022/02/17 12:19:42;;;;;;;3.42;1.20;;;9.10;99.90;;;;;;5070634;28;20068;-53
2022/02/17 12:22:48;;;;;;;2.33;0.73;;;9.10;99.90;;;;;;5087767;28;20047;-52
2022/02/17 12:26:12;;;;;;;5.47;1.20;;;9.00;99.90;;;;;;5078617;28;20043;-55
2022/02/17 12:29:47;;;;;;;4.40;0.80;;;8.80;99.90;;;;;;5088522;28;20055;-52
2022/02/17 12:33:02;;;;;;;5.20;1.35;;;8.60;99.90;;;;;;5075075;28;20109;-53
2022/02/17 12:36:30;;;;;;;3.47;0.85;;;8.40;99.90;;;;;;5079074;28;20036;-53
2022/02/17 12:39:35;;;;;;;;;;;8.30;99.90;;;;;;5077610;28;20114;-54
2022/02/17 12:43:01;;;;;;;4.20;1.00;;;8.20;99.90;;;;;;5055016;28;19930;-58
2022/02/17 12:46:27;;;;;;;2.67;0.77;;;8.20;99.90;;;;;;5078283;28;20052;-57
2022/02/17 12:49:52;;;;;;;2.55;0.75;;;8.30;99.90;;;;;;5080814;28;20036;-57
2022/02/17 12:53:17;;;;;;;2.25;0.75;;;8.30;99.90;;;;;;5077044;28;20205;-57
2022/02/17 12:56:42;;;;;;;3.20;0.90;;;8.30;99.90;;;;;;5083047;28;20040;-58
2022/02/17 13:00:16;;;;;;;2.35;0.70;;;8.10;99.90;;;;;;5083037;28;20069;-56
2022/02/17 13:03:51;;;;;;;1.98;0.80;;;7.90;99.90;;;;;;5077628;28;20032;-57
2022/02/17 13:07:19;;;;;;;8.15;1.45;;;7.60;99.90;;;;;;5087024;28;20044;-57
2022/02/17 13:10:44;;;;;;;1.25;0.65;;;7.20;99.90;;;;;;5072097;28;20400;-57
2022/02/17 13:14:10;;;;;;;4.22;0.93;;;6.90;99.90;;;;;;5064658;28;20523;-58
2022/02/17 13:17:36;;;;;;;1.08;0.40;;;6.60;99.90;;;;;;5079076;28;20052;-56
2022/02/17 13:21:01;;;;;;;0.68;0.32;;;6.30;99.90;;;;;;5049258;28;20090;-57
2022/02/17 13:24:26;;;;;;;2.08;0.47;;;6.20;99.90;;;;;;5082378;28;20551;-57
2022/02/17 13:27:54;;;;;;;2.17;0.50;;;6.00;99.90;;;;;;5056155;28;20040;-57
2022/02/17 13:31:20;;;;;;;0.93;0.40;;;6.10;99.90;;;;;;5077817;28;20036;-57
2022/02/17 13:34:48;;;;;;;0.50;0.40;;;6.30;99.90;;;;;;5083550;28;20479;-57
2022/02/17 13:38:06;;;;;;;;;;;6.40;99.90;;;;;;5084183;28;20040;-57
2022/02/17 13:41:31;;;;;;;4.85;0.65;;;6.40;99.90;;;;;;5077735;28;19912;-57
2022/02/17 13:44:59;;;;;;;1.70;0.30;;;6.30;99.90;;;;;;5072291;28;20423;-57
2022/02/17 13:48:25;;;;;;;0.55;0.55;;;6.40;99.90;;;;;;5067245;28;20041;-57
2022/02/17 13:51:50;;;;;;;2.95;0.57;;;6.40;99.90;;;;;;5085580;28;20043;-57
2022/02/17 13:55:29;;;;;;;4.30;1.40;;;6.50;99.90;;;;;;5082848;28;20123;-57
2022/02/17 13:58:53;;;;;;;4.63;1.00;;;6.60;99.90;;;;;;5062978;28;20119;-56
2022/02/17 14:02:18;;;;;;;1.58;0.90;;;6.70;99.90;;;;;;5077866;28;20112;-57
2022/02/17 14:05:47;;;;;;;2.40;0.70;;;7.00;99.90;;;;;;5069148;28;20052;-57
2022/02/17 14:08:52;;;;;;;;;;;7.20;99.90;;;;;;5068403;28;20036;-57
2022/02/17 14:12:18;;;;;;;2.05;0.52;;;7.20;99.90;;;;;;5077669;28;19908;-57
2022/02/17 14:15:43;;;;;;;3.45;0.88;;;7.00;99.90;;;;;;5074005;28;20126;-57
2022/02/17 14:19:08;;;;;;;6.28;1.02;;;6.90;99.90;;;;;;5067078;28;20149;-57
2022/02/17 14:21:54;;;;;;;5.35;1.20;;;6.60;99.90;;;;;;5080433;28;20035;-57
2022/02/17 14:24:20;;;;;;;5.32;1.60;;;6.50;99.90;;;;;;5088816;28;20531;-57
2022/02/17 14:26:45;;;;;;;3.75;1.00;;;6.40;99.90;;;;;;5074543;28;20042;-57
2022/02/17 14:29:12;;;;;;;7.20;1.60;;;6.30;99.90;;;;;;5068926;28;20123;-56
2022/02/17 14:31:37;;;;;;;4.57;1.60;;;6.30;99.90;;;;;;5086105;28;20032;-57
2022/02/17 14:38:07;;;;;;;7.63;2.42;;;6.50;99.90;;;;;;5073597;28;20055;-57
2022/02/17 14:41:32;;;;;;;3.25;1.42;;;6.70;99.90;;;;;;5075282;28;20064;-57
2022/02/17 14:44:58;;;;;;;8.68;2.00;;;6.90;99.90;;;;;;5065374;28;20060;-58
2022/02/17 14:48:23;;;;;;;5.28;1.48;;;6.90;99.90;;;;;;5080349;28;20048;-58
2022/02/17 14:51:48;;;;;;;10.02;2.63;;;6.90;99.90;;;;;;5055464;28;20033;-57
2022/02/17 14:55:14;;;;;;;5.65;2.30;;;6.80;99.90;;;;;;5073727;28;20040;-57
2022/02/17 14:58:39;;;;;;;7.32;2.72;;;6.70;99.90;;;;;;5086019;28;20066;-57
2022/02/17 15:02:04;;;;;;;7.85;2.70;;;6.50;99.90;;;;;;5084526;28;20479;-57
2022/02/17 15:05:30;;;;;;;7.13;2.00;;;6.40;99.90;;;;;;5051654;28;20041;-57
2022/02/17 15:08:55;;;;;;;6.05;1.45;;;6.40;99.90;;;;;;5089908;28;20114;-57
2022/02/17 15:12:21;;;;;;;10.45;1.92;;;6.30;99.90;;;;;;5086364;28;20028;-57
2022/02/17 15:15:46;;;;;;;3.15;1.35;;;6.20;99.90;;;;;;5051611;28;20036;-57
2022/02/17 15:19:11;;;;;;;5.50;1.45;;;6.20;99.90;;;;;;5085786;28;20151;-57
2022/02/17 15:22:37;;;;;;;6.15;1.30;;;6.20;99.90;;;;;;5070649;28;20036;-57
2022/02/17 15:26:02;;;;;;;6.95;3.63;;;6.20;99.90;;;;;;5087833;28;20403;-57
2022/02/17 15:29:27;;;;;;;3.53;1.65;;;6.10;99.90;;;;;;5087941;28;20085;-53
2022/02/17 15:32:53;;;;;;;1.55;0.60;;;6.00;99.90;;;;;;5079004;28;20042;-57
2022/02/17 15:36:18;;;;;;;0.57;0.43;;;5.90;99.90;;;;;;5072142;28;20044;-56
2022/02/17 15:39:44;;;;;;;1.80;0.77;;;5.80;99.90;;;;;;5071488;28;20039;-56
2022/02/17 15:43:09;;;;;;;0.90;0.38;;;5.80;99.90;;;;;;5064865;28;20505;-56
2022/02/17 15:46:34;;;;;;;2.03;0.40;;;5.80;99.90;;;;;;5062508;28;20056;-56
2022/02/17 15:50:00;;;;;;;0.47;0.30;;;5.80;99.90;;;;;;5077242;28;20044;-56
2022/02/17 15:53:30;;;;;;;2.15;0.52;;;5.80;99.90;;;;;;5070151;28;20106;-55
2022/02/17 15:56:50;;;;;;;0.35;0.32;;;5.80;99.90;;;;;;5064897;28;20697;-58
2022/02/17 16:00:16;;;;;;;4.82;1.27;;;5.80;99.90;;;;;;5079151;28;20066;-56
2022/02/17 16:03:41;;;;;;;1.83;0.60;;;5.70;99.90;;;;;;5049834;28;20033;-57
2022/02/17 16:07:06;;;;;;;1.58;0.90;;;5.60;99.90;;;;;;5081998;28;20040;-57
2022/02/17 16:10:32;;;;;;;3.95;1.52;;;5.60;99.90;;;;;;5070436;28;20028;-57
2022/02/17 16:13:57;;;;;;;2.67;0.70;;;5.50;99.90;;;;;;5078760;28;20121;-57
2022/02/17 16:17:22;;;;;;;2.00;0.90;;;5.50;99.90;;;;;;5084004;28;20459;-57
2022/02/17 16:20:48;;;;;;;4.38;0.95;;;5.50;99.90;;;;;;5081733;28;20032;-58
2022/02/17 16:24:13;;;;;;;8.65;1.20;;;5.50;99.90;;;;;;5083741;28;20500;-58
2022/02/17 16:26:59;;;;;;;3.78;0.98;;;5.50;99.90;;;;;;5081748;28;20047;-58
2022/02/17 16:30:04;;;;;;;6.65;1.10;;;5.60;99.90;;;;;;5069605;28;20044;-61
2022/02/17 16:33:30;;;;;;;3.42;1.00;;;5.60;99.90;;;;;;5049089;28;20045;-61
2022/02/17 16:36:55;;;;;;;4.32;1.65;;;5.60;99.90;;;;;;5083557;28;20040;-61
2022/02/17 16:40:20;;;;;;;5.35;1.58;;;5.50;99.90;;;;;;5083869;28;20131;-60
2022/02/17 16:43:49;;;;;;;3.63;0.80;;;5.40;99.90;;;;;;5070325;28;20035;-60
2022/02/17 16:47:11;;;;;;;7.70;1.00;;;5.30;99.90;;;;;;5085745;28;20048;-59
2022/02/17 16:50:36;;;;;;;5.15;1.05;;;5.10;99.90;;;;;;5075925;28;20033;-59
2022/02/17 16:54:02;;;;;;;1.88;0.90;;;5.00;99.90;;;;;;5049012;28;20631;-59
2022/02/17 16:57:27;;;;;;;2.22;0.80;;;5.00;99.90;;;;;;5077849;28;20040;-59
2022/02/17 17:00:55;;;;;;;3.92;1.08;;;4.90;99.90;;;;;;5066602;28;20040;-60
2022/02/17 17:04:18;;;;;;;3.05;0.93;;;4.90;99.90;;;;;;5076707;28;20051;-59
2022/02/17 17:07:43;;;;;;;7.13;1.38;;;4.90;99.90;;;;;;5082936;28;20044;-60
2022/02/17 17:11:09;;;;;;;5.40;1.40;;;4.80;99.90;;;;;;5063813;28;20064;-60
2022/02/17 17:14:34;;;;;;;5.78;1.48;;;4.80;99.90;;;;;;5085114;28;20035;-59
2022/02/17 17:17:59;;;;;;;6.78;1.35;;;4.80;99.90;;;;;;5085206;28;20253;-59